Terminal Aerodrome Forecast
Issued by NWS Mt. Holly, NJ

Home | Current Version | Previous Version | Text Only | Print | Product List | Glossary On
Versions: 1 2 3 4 5 6 7 8 9 10 11 12 13 14 15 16 17 18 19 20 21 22
000
FTUS41 KPHI 191724
TAFPHL
TAF
KPHL 191724Z 1918/2024 10012KT P6SM OVC250
     FM200100 10015KT P6SM OVC050
     FM200300 09016G26KT 6SM -SHRA OVC020
     FM200600 09017G28KT 2SM -RA BR OVC008 WS020/13055KT
     FM201500 16010KT 6SM -SHRA BR OVC012
     FM201900 20008KT P6SM BKN025=

USA.gov is the U.S. government's official web portal to all federal, state and local government web resources and services.